Time;durP1;ratioP1;P1;durP2;ratioP2;P2;SDS_P1;SDS_P2;PMS_P1;PMS_P2;Temp;Humidity;BMP_temperature;BMP_pressure;BME280_temperature;BME280_humidity;BME280_pressure;Samples;Min_cycle;Max_cycle;Signal;HPM_P1;HPM_P2
2022/07/03 00:01:44;;;;;;;12.80;5.30;;;;;;;24.87;50.61;98809.13;5129847;28;20039;-89
2022/07/03 00:04:09;;;;;;;10.68;5.03;;;;;;;24.82;51.23;98817.69;5129541;27;20084;-91
2022/07/03 00:06:35;;;;;;;9.13;5.28;;;;;;;24.44;51.46;98812.72;5129310;27;20049;-91
2022/07/03 00:09:04;;;;;;;9.90;5.03;;;;;;;24.17;52.42;98811.31;5129744;27;20041;-92
2022/07/03 00:11:30;;;;;;;13.80;5.35;;;;;;;24.01;52.85;98808.13;5127486;28;20043;-91
2022/07/03 00:13:58;;;;;;;10.98;5.40;;;;;;;24.07;52.88;98832.97;5129527;27;20040;-90
2022/07/03 00:16:24;;;;;;;9.73;5.00;;;;;;;23.92;52.95;98821.50;5129239;27;20069;-90
2022/07/03 00:18:49;;;;;;;12.57;5.43;;;;;;;23.89;52.98;98816.28;5129281;28;20119;-92
2022/07/03 00:21:20;;;;;;;9.65;5.97;;;;;;;23.97;53.48;98834.69;5129394;27;20536;-90
2022/07/03 00:23:51;;;;;;;11.45;5.90;;;;;;;23.96;53.70;98843.81;5129952;27;20038;-91
2022/07/03 00:26:20;;;;;;;16.10;5.95;;;;;;;23.93;54.49;98844.94;5129540;27;20104;-92
2022/07/03 00:28:46;;;;;;;10.25;5.80;;;;;;;23.90;54.18;98842.47;5129422;28;20031;-90
2022/07/03 00:31:13;;;;;;;9.38;5.43;;;;;;;23.74;54.79;98826.50;5129448;28;20042;-90
2022/07/03 00:33:41;;;;;;;11.60;5.38;;;;;;;23.64;55.11;98820.13;5129343;27;20092;-93
2022/07/03 00:36:07;;;;;;;9.65;5.35;;;;;;;23.55;55.34;98813.56;5129555;28;20028;-94
2022/07/03 00:38:33;;;;;;;8.82;5.68;;;;;;;23.65;55.48;98848.13;5129170;27;20518;-88
2022/07/03 00:41:01;;;;;;;12.75;6.20;;;;;;;23.50;55.98;98855.63;5129204;27;20065;-89
2022/07/03 00:43:26;;;;;;;9.80;5.82;;;;;;;23.25;57.01;98845.81;5129531;28;20074;-92
2022/07/03 00:45:53;;;;;;;8.85;5.93;;;;;;;23.28;56.81;98851.03;5129167;27;20067;-90
2022/07/03 00:48:21;;;;;;;10.10;6.20;;;;;;;23.09;57.22;98841.59;5129231;27;20039;-91
2022/07/03 00:50:48;;;;;;;10.83;5.90;;;;;;;22.96;57.48;98833.50;5116522;27;20044;-91
2022/07/03 00:53:18;;;;;;;11.55;6.22;;;;;;;22.81;58.02;98822.97;5115324;28;20395;-92
2022/07/03 00:55:47;;;;;;;10.40;5.90;;;;;;;22.92;58.52;98853.72;5115825;28;20111;-91
2022/07/03 00:58:15;;;;;;;11.15;6.20;;;;;;;22.79;58.74;98827.66;5115747;28;20068;-92
2022/07/03 01:00:41;;;;;;;10.90;5.80;;;;;;;22.79;58.37;98844.78;5115580;28;20097;-91
2022/07/03 01:03:13;;;;;;;13.45;6.97;;;;;;;22.61;59.07;98833.50;5115923;28;20043;-91
2022/07/03 01:05:43;;;;;;;10.68;5.65;;;;;;;22.59;58.87;98832.75;5115325;28;20039;-90
2022/07/03 01:08:17;;;;;;;12.27;6.43;;;;;;;22.69;58.98;98850.03;5115060;28;20088;-90
2022/07/03 01:10:48;;;;;;;13.93;6.15;;;;;;;22.61;59.75;98844.34;5114707;28;20050;-91
2022/07/03 01:13:21;;;;;;;10.30;6.43;;;;;;;22.66;60.15;98852.13;5114063;28;20043;-92
2022/07/03 01:15:57;;;;;;;12.10;6.13;;;;;;;22.54;60.55;98852.06;5114914;28;20062;-90
2022/07/03 01:18:35;;;;;;;13.82;6.40;;;;;;;22.57;60.99;98848.25;5114339;28;20038;-89
2022/07/03 01:21:07;;;;;;;11.48;6.32;;;;;;;22.51;61.30;98852.31;5114793;28;20112;-92
2022/07/03 01:23:52;;;;;;;16.75;6.55;;;;;;;22.30;62.12;98835.78;5113331;28;20480;-93
2022/07/03 01:26:22;;;;;;;13.38;6.38;;;;;;;22.36;62.29;98845.31;5114613;28;20039;-93
2022/07/03 01:28:49;;;;;;;13.02;6.63;;;;;;;22.24;63.07;98828.13;5114828;28;20053;-90
2022/07/03 01:31:20;;;;;;;15.93;6.53;;;;;;;22.24;62.84;98838.09;5114805;28;20055;-93
2022/07/03 01:33:51;;;;;;;12.52;6.63;;;;;;;22.19;63.14;98819.44;5114556;28;20404;-93
2022/07/03 01:36:21;;;;;;;12.68;6.97;;;;;;;22.25;63.08;98827.16;5114648;27;20042;-93
2022/07/03 01:38:50;;;;;;;13.20;6.88;;;;;;;22.12;63.46;98829.88;5113763;28;20067;-90
2022/07/03 01:41:15;;;;;;;;;;;;;;;22.19;63.34;98841.13;5115287;28;20036;-94
2022/07/03 01:43:47;;;;;;;13.18;6.75;;;;;;;22.20;63.91;98850.97;5114575;28;19965;-90
2022/07/03 01:46:16;;;;;;;11.25;6.28;;;;;;;22.01;64.19;98821.69;5114420;28;20031;-91
2022/07/03 01:48:43;;;;;;;12.57;6.93;;;;;;;22.18;64.04;98844.78;5111274;28;20040;-94
2022/07/03 01:51:12;;;;;;;11.02;6.45;;;;;;;22.21;63.37;98835.59;5114364;28;20039;-91
2022/07/03 01:53:43;;;;;;;15.45;7.15;;;;;;;22.10;64.10;98825.56;5113280;28;20035;-91
2022/07/03 01:56:11;;;;;;;14.73;6.90;;;;;;;22.02;63.90;98831.50;5112703;28;20044;-89
2022/07/03 01:58:36;;;;;;;13.13;6.90;;;;;;;21.90;63.85;98825.16;5114406;28;20043;-92
2022/07/03 02:01:10;;;;;;;11.70;6.57;;;;;;;21.84;64.73;98830.13;5113628;28;20038;-93
2022/07/03 02:03:41;;;;;;;12.15;6.40;;;;;;;21.74;64.78;98821.81;5114486;28;20519;-94
2022/07/03 02:06:10;;;;;;;12.55;6.93;;;;;;;21.80;63.72;98826.81;5114327;28;20492;-90
2022/07/03 02:08:44;;;;;;;13.43;6.45;;;;;;;21.77;64.50;98824.31;5114543;28;20043;-89
2022/07/03 02:11:15;;;;;;;14.90;6.72;;;;;;;21.70;64.86;98823.03;5113894;28;20039;-92
2022/07/03 02:13:52;;;;;;;12.75;6.22;;;;;;;21.62;64.29;98829.00;5113055;28;20366;-93
2022/07/03 02:16:22;;;;;;;14.45;6.20;;;;;;;21.65;65.23;98842.31;5110758;28;20049;-93
2022/07/03 02:18:58;;;;;;;13.98;6.70;;;;;;;21.64;63.83;98828.88;5113865;28;20493;-92
2022/07/03 02:21:27;;;;;;;10.45;6.18;;;;;;;21.67;64.34;98829.53;5113552;28;20044;-90
2022/07/03 02:24:03;;;;;;;13.38;6.57;;;;;;;21.47;65.28;98801.19;5112877;28;20366;-91
2022/07/03 02:26:32;;;;;;;13.68;7.00;;;;;;;21.59;64.97;98820.22;5111885;28;20130;-91
2022/07/03 02:29:02;;;;;;;10.27;6.10;;;;;;;21.51;64.99;98801.81;5114169;28;20067;-92
2022/07/03 02:31:38;;;;;;;11.52;6.55;;;;;;;21.59;64.78;98822.94;5114339;28;20052;-91
2022/07/03 02:34:06;;;;;;;11.82;6.30;;;;;;;21.61;64.34;98834.50;5114146;28;20067;-91
2022/07/03 02:36:34;;;;;;;10.77;6.50;;;;;;;21.61;63.62;98840.78;5113538;28;20039;-88
2022/07/03 02:39:00;;;;;;;10.57;6.28;;;;;;;21.57;64.10;98833.84;5113961;28;20040;-90
2022/07/03 02:41:37;;;;;;;10.82;6.30;;;;;;;21.58;63.81;98832.91;5113784;28;20378;-92
2022/07/03 02:44:13;;;;;;;10.35;6.00;;;;;;;21.53;64.24;98835.03;5112248;28;20085;-90
2022/07/03 02:46:49;;;;;;;10.88;6.20;;;;;;;21.50;64.51;98841.53;5110552;28;20048;-93
2022/07/03 02:49:22;;;;;;;13.32;5.90;;;;;;;21.39;64.56;98824.31;5112542;28;20712;-90
2022/07/03 02:51:57;;;;;;;11.13;5.80;;;;;;;21.33;63.95;98817.50;5113521;27;20118;-92
2022/07/03 02:54:24;;;;;;;16.15;5.90;;;;;;;21.46;64.36;98836.47;5113432;28;20047;-92
2022/07/03 02:57:00;;;;;;;14.60;6.13;;;;;;;21.36;64.52;98825.41;5113466;28;20622;-89
2022/07/03 02:59:39;;;;;;;15.23;6.63;;;;;;;21.31;64.99;98830.25;5113269;28;20751;-92
2022/07/03 03:02:12;;;;;;;;;;;;;;;21.38;64.97;98842.38;5113313;28;20100;-92
2022/07/03 03:04:44;;;;;;;15.77;6.20;;;;;;;21.32;65.11;98827.47;5111413;28;19945;-90
2022/07/03 03:07:14;;;;;;;12.05;6.13;;;;;;;21.21;66.09;98815.63;5109934;28;20419;-91
2022/07/03 03:09:42;;;;;;;11.60;7.00;;;;;;;21.13;65.86;98808.94;5113594;28;20031;-91
2022/07/03 03:12:09;;;;;;;13.98;6.55;;;;;;;21.22;65.12;98820.94;5112537;27;20039;-90
2022/07/03 03:14:39;;;;;;;13.27;6.68;;;;;;;21.29;64.65;98832.22;5113083;28;20059;-94
2022/07/03 03:17:08;;;;;;;10.80;6.63;;;;;;;21.24;65.46;98820.84;5112228;28;20044;-92
2022/07/03 03:19:39;;;;;;;12.43;6.65;;;;;;;21.15;65.36;98825.06;5112727;28;20043;-90
2022/07/03 03:22:16;;;;;;;16.33;6.80;;;;;;;21.12;65.19;98826.16;5112284;28;21410;-91
2022/07/03 03:24:42;;;;;;;15.25;6.80;;;;;;;21.18;65.23;98832.09;5111454;28;20039;-91
2022/07/03 03:27:08;;;;;;;12.43;6.65;;;;;;;21.15;65.97;98833.19;5111333;28;20043;-90
2022/07/03 03:29:34;;;;;;;13.80;6.68;;;;;;;21.01;65.39;98817.03;5112145;28;20396;-89
2022/07/03 03:32:00;;;;;;;12.88;6.43;;;;;;;21.20;64.71;98825.59;5113349;28;20118;-92
2022/07/03 03:34:28;;;;;;;11.15;6.00;;;;;;;21.26;63.39;98814.34;5113251;28;20541;-89
2022/07/03 03:36:54;;;;;;;10.93;6.40;;;;;;;21.52;63.39;98842.31;5112391;28;20377;-92
2022/07/03 03:39:20;;;;;;;10.98;5.72;;;;;;;21.44;63.51;98833.84;5111818;28;20066;-92
2022/07/03 03:41:46;;;;;;;13.90;6.43;;;;;;;21.41;63.11;98825.97;5112942;28;20046;-90
2022/07/03 03:44:11;;;;;;;11.93;6.22;;;;;;;21.45;62.87;98818.53;5112989;28;20122;-91
2022/07/03 03:46:37;;;;;;;13.98;6.43;;;;;;;21.49;62.82;98831.72;5112615;28;20499;-90
2022/07/03 03:49:03;;;;;;;10.35;6.70;;;;;;;21.39;63.07;98817.06;5112937;28;20047;-90
2022/07/03 03:51:30;;;;;;;13.88;6.63;;;;;;;21.51;64.24;98837.88;5112680;28;20032;-93
2022/07/03 03:53:56;;;;;;;13.70;6.65;;;;;;;21.57;64.37;98838.41;5113137;28;20035;-91
2022/07/03 03:56:22;;;;;;;11.48;6.05;;;;;;;21.39;63.74;98818.91;5111838;28;20046;-91
2022/07/03 03:58:47;;;;;;;9.38;6.57;;;;;;;21.46;64.39;98837.31;5113126;28;20035;-92
2022/07/03 04:01:13;;;;;;;11.88;6.72;;;;;;;21.39;64.83;98836.00;5111557;28;20442;-90
2022/07/03 04:03:40;;;;;;;11.05;6.20;;;;;;;21.37;64.62;98840.66;5112987;28;20434;-93
2022/07/03 04:06:07;;;;;;;10.18;6.13;;;;;;;21.31;64.75;98836.53;5110194;28;20032;-91
2022/07/03 04:08:34;;;;;;;10.70;6.43;;;;;;;21.32;64.64;98850.94;5112471;28;20489;-90
2022/07/03 04:11:00;;;;;;;19.05;5.97;;;;;;;21.41;62.98;98844.91;5112809;28;20543;-89
2022/07/03 04:13:25;;;;;;;11.85;5.90;;;;;;;21.49;62.50;98837.13;5112529;28;20031;-91
2022/07/03 04:15:53;;;;;;;11.40;6.05;;;;;;;21.54;62.56;98839.50;5112330;28;20064;-90
2022/07/03 04:18:19;;;;;;;14.57;6.80;;;;;;;21.61;62.61;98845.34;5112015;28;20089;-93
2022/07/03 04:20:45;;;;;;;11.13;6.13;;;;;;;21.44;63.08;98833.84;5112538;28;20044;-90
2022/07/03 04:23:11;;;;;;;16.08;6.63;;;;;;;21.52;63.32;98838.75;5112610;28;20062;-92
2022/07/03 04:25:38;;;;;;;13.43;6.90;;;;;;;21.36;63.72;98836.22;5114520;28;20467;-91
2022/07/03 04:28:04;;;;;;;9.65;6.20;;;;;;;21.33;63.69;98837.28;5116375;27;20546;-89
2022/07/03 04:30:30;;;;;;;10.88;6.20;;;;;;;21.37;64.31;98840.66;5115958;28;20043;-89
2022/07/03 04:32:56;;;;;;;11.07;6.60;;;;;;;21.36;64.07;98841.66;5116041;27;20378;-88
2022/07/03 04:35:22;;;;;;;13.38;6.63;;;;;;;21.34;64.43;98843.59;5114893;28;20720;-88
2022/07/03 04:37:47;;;;;;;14.07;6.97;;;;;;;21.25;64.51;98852.31;5115951;28;20130;-91
2022/07/03 04:40:13;;;;;;;10.43;6.50;;;;;;;21.18;64.77;98838.38;5115518;28;20125;-90
2022/07/03 04:42:40;;;;;;;14.23;6.88;;;;;;;21.26;64.90;98844.13;5116006;28;20047;-88
2022/07/03 04:45:07;;;;;;;14.60;7.18;;;;;;;21.27;64.84;98848.53;5115058;28;20365;-90
2022/07/03 04:47:33;;;;;;;13.45;6.47;;;;;;;21.36;64.77;98844.34;5112544;28;20035;-90
2022/07/03 04:49:59;;;;;;;9.63;6.57;;;;;;;21.36;64.01;98829.94;5115782;28;20038;-89
2022/07/03 04:52:25;;;;;;;10.30;6.93;;;;;;;21.44;63.71;98827.59;5115734;28;20501;-91
2022/07/03 04:54:50;;;;;;;9.73;6.13;;;;;;;21.59;62.75;98840.03;5115418;28;20043;-90
2022/07/03 04:57:16;;;;;;;12.80;6.22;;;;;;;21.86;61.60;98830.88;5115589;28;20124;-88
2022/07/03 04:59:44;;;;;;;12.55;6.82;;;;;;;22.50;59.21;98828.03;5115356;28;20043;-91
2022/07/03 05:02:09;;;;;;;11.25;6.63;;;;;;;23.00;57.58;98839.59;5115136;28;20036;-91
2022/07/03 05:04:35;;;;;;;12.43;6.18;;;;;;;23.34;55.91;98821.56;5115337;28;20140;-89
2022/07/03 05:07:01;;;;;;;11.30;6.22;;;;;;;23.88;54.82;98833.59;5115249;28;20396;-93
2022/07/03 05:09:26;;;;;;;11.48;6.22;;;;;;;24.40;53.53;98829.31;5115928;28;21299;-91
2022/07/03 05:11:52;;;;;;;11.02;6.40;;;;;;;24.56;52.55;98842.50;5115696;28;20071;-89
2022/07/03 05:14:18;;;;;;;11.50;5.57;;;;;;;24.67;53.04;98843.47;5115369;28;20034;-90
2022/07/03 05:16:45;;;;;;;9.43;5.75;;;;;;;24.45;53.03;98823.47;5114898;28;20112;-90
2022/07/03 05:19:11;;;;;;;11.88;6.07;;;;;;;24.47;53.13;98823.34;5115369;28;20039;-90
2022/07/03 05:21:36;;;;;;;11.23;5.85;;;;;;;24.51;53.31;98846.63;5115146;28;20103;-92
2022/07/03 05:24:02;;;;;;;11.35;6.32;;;;;;;23.91;55.38;98832.47;5115039;28;20488;-89
2022/07/03 05:26:28;;;;;;;11.93;6.05;;;;;;;24.21;53.95;98831.81;5115111;28;20104;-90
2022/07/03 05:28:54;;;;;;;10.38;5.93;;;;;;;24.08;54.70;98834.69;5115362;28;20039;-92
2022/07/03 05:31:20;;;;;;;12.95;6.13;;;;;;;24.11;54.48;98845.28;5114917;28;20118;-89
2022/07/03 05:33:47;;;;;;;10.73;6.13;;;;;;;24.07;54.47;98848.38;5115028;28;20580;-87
2022/07/03 05:36:13;;;;;;;12.02;6.32;;;;;;;23.93;54.77;98849.50;5112586;28;20047;-90
2022/07/03 05:41:32;;;;;;;11.43;5.97;;;;;;;24.51;53.80;98860.22;5090245;27;20385;-91
2022/07/03 05:43:57;;;;;;;10.05;5.85;;;;;;;24.74;52.98;98867.28;5089766;28;20059;-87
2022/07/03 05:46:23;;;;;;;12.85;5.50;;;;;;;25.11;51.85;98866.91;5089453;28;20421;-91
2022/07/03 05:48:49;;;;;;;10.52;5.75;;;;;;;25.47;51.77;98859.28;5090160;28;20040;-89
2022/07/03 05:51:15;;;;;;;11.32;5.90;;;;;;;25.66;51.71;98846.81;5089686;28;20043;-91
2022/07/03 05:53:40;;;;;;;10.23;6.10;;;;;;;26.12;48.85;98851.75;5089201;28;20089;-89
2022/07/03 05:56:06;;;;;;;12.98;5.72;;;;;;;26.04;47.65;98848.84;5090336;28;20036;-91
2022/07/03 05:58:33;;;;;;;10.00;5.55;;;;;;;25.99;49.39;98842.94;5090795;28;20067;-90
2022/07/03 06:00:59;;;;;;;11.23;5.40;;;;;;;26.10;48.63;98837.41;5089886;28;20040;-91
2022/07/03 06:03:24;;;;;;;13.55;5.85;;;;;;;26.51;47.44;98851.00;5089069;28;20106;-90
2022/07/03 06:05:50;;;;;;;10.77;5.32;;;;;;;26.68;46.78;98857.66;5091989;28;20036;-93
2022/07/03 06:08:16;;;;;;;10.25;5.65;;;;;;;26.40;47.72;98851.97;5089250;28;20046;-89
2022/07/03 06:10:42;;;;;;;14.90;5.63;;;;;;;26.37;47.40;98864.03;5092894;28;20058;-92
2022/07/03 06:13:08;;;;;;;13.60;5.70;;;;;;;26.53;46.45;98865.34;5090811;28;20052;-91
2022/07/03 06:15:35;;;;;;;10.13;5.93;;;;;;;26.12;48.03;98840.00;5088800;28;20045;-92
2022/07/03 06:18:00;;;;;;;9.38;5.13;;;;;;;26.30;47.91;98865.56;5089570;28;20498;-89
2022/07/03 06:20:26;;;;;;;13.10;5.70;;;;;;;26.54;47.70;98867.06;5089642;28;20042;-92
2022/07/03 06:22:52;;;;;;;8.73;5.78;;;;;;;26.73;46.16;98863.53;5089045;28;20054;-90
2022/07/03 06:25:18;;;;;;;13.23;5.82;;;;;;;26.88;45.36;98851.19;5089901;28;20383;-91
2022/07/03 06:27:44;;;;;;;11.48;5.50;;;;;;;26.91;45.45;98837.25;5089226;28;20032;-91
2022/07/03 06:30:10;;;;;;;9.68;5.60;;;;;;;27.23;45.56;98863.44;5088857;28;20052;-91
2022/07/03 06:32:37;;;;;;;9.88;5.50;;;;;;;27.27;44.52;98843.03;5088874;28;20033;-94
2022/07/03 06:35:05;;;;;;;13.13;5.78;;;;;;;27.46;44.15;98858.50;5090241;28;20068;-93
2022/07/03 06:37:30;;;;;;;12.43;5.57;;;;;;;27.60;44.14;98866.22;5089976;28;20123;-89
2022/07/03 06:39:56;;;;;;;12.18;5.50;;;;;;;27.72;43.56;98855.16;5089593;28;20473;-92
2022/07/03 06:42:22;;;;;;;9.70;5.68;;;;;;;27.98;43.77;98875.34;5089471;28;20052;-91
2022/07/03 06:44:48;;;;;;;10.52;5.53;;;;;;;28.11;42.88;98868.69;5089398;28;20547;-92
2022/07/03 06:47:13;;;;;;;7.75;5.07;;;;;;;28.11;42.81;98853.16;5088552;28;20040;-89
2022/07/03 06:49:42;;;;;;;12.15;5.35;;;;;;;28.02;42.40;98848.59;5088824;28;20040;-92
2022/07/03 06:52:08;;;;;;;8.90;4.95;;;;;;;27.95;43.84;98859.25;5079223;28;20044;-90
2022/07/03 06:54:37;;;;;;;8.52;5.13;;;;;;;28.24;41.73;98858.28;5075951;28;20039;-93
2022/07/03 06:57:04;;;;;;;11.05;5.03;;;;;;;28.33;41.02;98856.50;5075521;28;20113;-91
2022/07/03 06:59:30;;;;;;;12.25;5.05;;;;;;;28.54;41.33;98859.84;5073354;28;20048;-92
2022/07/03 07:01:55;;;;;;;11.05;4.90;;;;;;;28.68;40.27;98862.03;5073701;28;20043;-90
2022/07/03 07:04:21;;;;;;;11.15;5.30;;;;;;;28.75;39.85;98845.88;5073239;28;20037;-90
2022/07/03 07:06:48;;;;;;;8.13;5.15;;;;;;;28.78;40.69;98856.50;5074985;28;20044;-91
2022/07/03 07:09:14;;;;;;;10.40;5.63;;;;;;;28.70;41.34;98859.16;5075273;28;20063;-90
2022/07/03 07:11:40;;;;;;;8.57;5.00;;;;;;;28.76;42.32;98868.63;5076020;28;20036;-91
2022/07/03 07:14:05;;;;;;;13.55;5.63;;;;;;;28.57;42.03;98858.69;5075172;28;20033;-89
2022/07/03 07:16:31;;;;;;;9.70;5.28;;;;;;;28.73;41.02;98847.03;5075303;28;20044;-91
2022/07/03 07:18:57;;;;;;;10.40;5.78;;;;;;;28.54;41.13;98848.03;5075176;28;20112;-90
2022/07/03 07:21:23;;;;;;;11.57;5.38;;;;;;;28.62;40.84;98842.66;5077105;28;20087;-91
2022/07/03 07:23:50;;;;;;;11.07;5.28;;;;;;;28.74;39.71;98827.72;5073363;28;20084;-93
2022/07/03 07:26:18;;;;;;;12.10;5.20;;;;;;;28.92;40.21;98846.03;5074727;28;20064;-94
2022/07/03 07:28:43;;;;;;;9.85;5.07;;;;;;;29.18;39.14;98855.19;5075109;28;20044;-89
2022/07/03 07:31:09;;;;;;;9.98;5.10;;;;;;;28.82;39.56;98846.09;5075787;28;20024;-93
2022/07/03 07:33:35;;;;;;;10.55;5.53;;;;;;;28.86;39.92;98842.91;5073374;28;20041;-89
2022/07/03 07:36:01;;;;;;;10.30;5.30;;;;;;;29.23;38.71;98847.38;5073332;28;20090;-91
2022/07/03 07:38:26;;;;;;;9.00;5.05;;;;;;;29.52;37.73;98846.22;5077057;28;20055;-90
2022/07/03 07:40:54;;;;;;;10.15;4.90;;;;;;;29.51;37.26;98818.97;5074917;28;20076;-92
2022/07/03 07:43:19;;;;;;;10.10;5.07;;;;;;;29.81;36.20;98834.94;5075892;28;20040;-92
2022/07/03 07:45:45;;;;;;;8.90;4.68;;;;;;;30.01;35.99;98832.81;5076640;28;20090;-93
2022/07/03 07:48:14;;;;;;;9.68;5.32;;;;;;;30.08;36.36;98833.88;5074324;28;20418;-94
2022/07/03 07:50:40;;;;;;;7.60;4.57;;;;;;;30.13;35.56;98819.69;5078189;28;20037;-92
2022/07/03 07:53:05;;;;;;;14.23;4.80;;;;;;;30.35;36.06;98823.72;5077213;28;20107;-93
2022/07/03 07:55:31;;;;;;;10.80;5.10;;;;;;;30.45;35.02;98807.13;5078764;28;20037;-94
2022/07/03 07:57:59;;;;;;;12.32;4.78;;;;;;;30.72;35.28;98814.22;5074062;28;20072;-92
2022/07/03 08:00:24;;;;;;;14.48;5.07;;;;;;;30.93;35.37;98808.25;5073289;28;20063;-91
2022/07/03 08:05:51;;;;;;;7.82;4.93;;;;;;;31.13;34.86;98819.75;5116756;27;20396;-96
2022/07/03 08:08:17;;;;;;;8.45;5.30;;;;;;;31.18;34.72;98827.47;5113576;28;20101;-92
2022/07/03 08:10:44;;;;;;;14.20;5.18;;;;;;;31.33;34.39;98821.13;5117202;28;20040;-94
2022/07/03 08:13:12;;;;;;;12.43;5.57;;;;;;;31.55;33.75;98815.13;5113772;28;20048;-94
2022/07/03 08:15:39;;;;;;;10.68;5.30;;;;;;;31.46;33.90;98806.88;5107392;28;20071;-92
2022/07/03 08:18:05;;;;;;;9.82;4.95;;;;;;;31.34;33.55;98797.25;5110052;28;20050;-91
2022/07/03 08:20:31;;;;;;;8.70;5.40;;;;;;;31.53;34.49;98815.28;5111004;28;20115;-95
2022/07/03 08:22:59;;;;;;;9.15;4.78;;;;;;;31.26;33.85;98814.59;5110417;28;20040;-90
2022/07/03 08:25:25;;;;;;;9.70;5.20;;;;;;;31.55;34.39;98804.97;5110046;28;20050;-92
2022/07/03 08:27:51;;;;;;;10.50;5.10;;;;;;;31.51;34.52;98820.09;5109927;28;20038;-92
2022/07/03 08:30:18;;;;;;;10.45;5.50;;;;;;;31.79;34.44;98822.44;5109370;28;20122;-91
2022/07/03 08:32:44;;;;;;;8.00;5.50;;;;;;;31.91;33.78;98810.03;5109857;28;20043;-91
2022/07/03 08:35:10;;;;;;;10.70;5.05;;;;;;;32.20;33.63;98814.91;5109370;28;20040;-92
2022/07/03 08:37:36;;;;;;;8.32;5.00;;;;;;;31.75;33.26;98807.31;5102718;28;20035;-92
2022/07/03 08:40:04;;;;;;;9.93;5.55;;;;;;;31.86;32.61;98806.97;5113156;28;20035;-91
2022/07/03 08:42:30;;;;;;;;;;;;;;;31.69;33.48;98828.16;5113868;28;20105;-93
2022/07/03 08:44:58;;;;;;;9.00;5.25;;;;;;;31.93;32.99;98821.72;5109699;28;19924;-90
2022/07/03 08:47:26;;;;;;;11.13;5.38;;;;;;;32.05;32.82;98822.22;5114429;28;20060;-92
2022/07/03 08:49:55;;;;;;;13.07;5.63;;;;;;;32.21;33.04;98813.06;5109297;28;20516;-93
2022/07/03 08:52:22;;;;;;;10.32;5.40;;;;;;;32.49;31.69;98808.75;5114221;28;20054;-95
2022/07/03 08:54:48;;;;;;;10.63;5.03;;;;;;;32.77;31.88;98811.03;5116548;28;20032;-94
2022/07/03 08:57:16;;;;;;;8.88;5.30;;;;;;;33.10;31.22;98816.31;5108804;28;21004;-95
2022/07/03 08:59:44;;;;;;;10.30;5.25;;;;;;;33.22;31.19;98792.75;5117322;28;20507;-93
2022/07/03 09:02:12;;;;;;;9.75;4.93;;;;;;;32.91;30.75;98801.09;5109055;28;20130;-93
2022/07/03 09:04:39;;;;;;;6.28;4.32;;;;;;;33.09;29.77;98831.97;5105623;28;20067;-93
2022/07/03 09:07:07;;;;;;;10.38;5.20;;;;;;;32.88;29.43;98816.09;5110858;28;20035;-92
2022/07/03 09:09:33;;;;;;;10.00;4.78;;;;;;;33.26;29.61;98834.59;5113862;28;20059;-93
2022/07/03 09:11:59;;;;;;;10.18;4.30;;;;;;;33.18;27.48;98818.13;5111318;28;20093;-91
2022/07/03 09:14:27;;;;;;;8.10;4.20;;;;;;;33.29;26.20;98795.63;5110317;28;20491;-92
2022/07/03 09:16:53;;;;;;;8.00;4.53;;;;;;;33.48;25.42;98816.31;5102633;28;20063;-95
2022/07/03 09:19:40;;;;;;;10.50;4.30;;;;;;;33.39;24.95;98814.69;5102546;28;20078;-96
2022/07/03 09:22:19;;;;;;;7.70;3.90;;;;;;;33.69;26.24;98802.66;5097106;28;20419;-95
2022/07/03 09:24:45;;;;;;;5.72;3.33;;;;;;;33.89;21.96;98788.31;5094463;28;20047;-94
2022/07/03 09:27:16;;;;;;;6.80;3.47;;;;;;;33.75;23.22;98796.41;5094179;28;20040;-95
2022/07/03 09:29:58;;;;;;;6.72;4.07;;;;;;;33.72;24.26;98779.38;5095956;28;20048;-94
2022/07/03 09:32:25;;;;;;;9.07;4.45;;;;;;;33.86;24.37;98789.56;5097407;28;20048;-95
2022/07/03 09:35:10;;;;;;;7.57;4.00;;;;;;;33.99;22.95;98793.56;5096283;28;20048;-92
2022/07/03 09:37:36;;;;;;;5.97;3.72;;;;;;;33.87;21.62;98782.97;5095032;28;20127;-95
2022/07/03 09:40:03;;;;;;;5.95;3.50;;;;;;;34.12;23.26;98786.31;5095313;28;20071;-90
2022/07/03 09:42:29;;;;;;;7.72;3.83;;;;;;;34.35;24.80;98782.56;5102702;28;20040;-92
2022/07/03 09:44:56;;;;;;;8.82;3.85;;;;;;;34.42;22.56;98791.78;5096640;28;20134;-91
2022/07/03 09:47:24;;;;;;;8.00;3.50;;;;;;;34.47;23.90;98794.81;5096843;28;20047;-92
2022/07/03 09:49:52;;;;;;;7.57;3.75;;;;;;;34.31;20.85;98784.88;5096041;28;20046;-94
2022/07/03 09:52:35;;;;;;;6.20;3.25;;;;;;;34.57;21.05;98806.41;5097681;28;20089;-94
2022/07/03 09:55:12;;;;;;;7.30;3.08;;;;;;;34.39;19.25;98794.06;5095395;28;20051;-94
2022/07/03 09:57:40;;;;;;;5.07;3.00;;;;;;;34.07;21.13;98799.81;5095531;28;20116;-91
2022/07/03 10:00:15;;;;;;;5.43;2.75;;;;;;;34.21;18.53;98780.69;5095344;28;20048;-93
2022/07/03 10:02:55;;;;;;;4.35;2.92;;;;;;;34.51;18.89;98792.53;5095688;28;20032;-95
2022/07/03 10:05:22;;;;;;;4.63;3.15;;;;;;;34.80;19.33;98775.00;5094892;28;20048;-93
2022/07/03 10:07:55;;;;;;;5.28;3.20;;;;;;;35.05;19.51;98761.66;5095380;28;20043;-93
2022/07/03 10:10:23;;;;;;;5.68;3.25;;;;;;;35.25;19.31;98777.59;5094914;28;20575;-93
2022/07/03 10:12:50;;;;;;;8.13;3.15;;;;;;;34.57;19.88;98772.41;5094419;28;20139;-90
2022/07/03 10:15:18;;;;;;;5.53;2.95;;;;;;;34.27;19.60;98778.03;5089934;28;20042;-92
2022/07/03 10:17:48;;;;;;;4.93;3.00;;;;;;;33.72;19.50;98780.25;5095280;28;20509;-94
2022/07/03 10:20:15;;;;;;;4.93;3.30;;;;;;;33.97;20.10;98785.47;5093154;28;20048;-90
2022/07/03 10:22:42;;;;;;;5.97;3.42;;;;;;;33.91;20.46;98780.69;5093516;28;20042;-93
2022/07/03 10:25:09;;;;;;;4.10;3.38;;;;;;;34.02;21.27;98763.66;5094267;28;20039;-93
2022/07/03 10:27:36;;;;;;;5.50;3.38;;;;;;;34.29;21.85;98773.16;5093865;28;20067;-91
2022/07/03 10:30:02;;;;;;;6.47;3.58;;;;;;;34.57;22.38;98756.69;5094726;28;20048;-92
2022/07/03 10:32:32;;;;;;;9.00;4.20;;;;;;;34.77;22.04;98775.41;5091894;28;20035;-92
2022/07/03 10:34:58;;;;;;;5.35;3.78;;;;;;;34.65;22.08;98760.41;5094930;28;20040;-93
2022/07/03 10:37:30;;;;;;;5.05;3.58;;;;;;;34.33;22.65;98773.59;5095143;28;20040;-94
2022/07/03 10:46:14;;;;;;;7.00;3.85;;;;;;;34.29;23.23;98747.47;5050056;27;21263;-93
2022/07/03 10:48:58;;;;;;;8.55;3.67;;;;;;;34.61;22.84;98742.50;5050048;28;20049;-94
2022/07/03 10:51:25;;;;;;;7.80;3.80;;;;;;;34.14;22.83;98737.31;5049386;28;20049;-92
2022/07/03 10:54:10;;;;;;;7.88;4.13;;;;;;;34.48;22.47;98733.03;5049552;28;20519;-93
2022/07/03 10:57:13;;;;;;;6.30;3.72;;;;;;;34.81;22.70;98738.06;5048926;28;20041;-91
2022/07/03 11:00:14;;;;;;;7.45;4.10;;;;;;;35.10;22.09;98730.66;5049244;28;20048;-95
2022/07/03 11:02:43;;;;;;;8.18;3.88;;;;;;;35.25;21.97;98725.91;5046833;28;20068;-91
2022/07/03 11:05:17;;;;;;;6.97;3.78;;;;;;;35.19;21.75;98723.94;5053145;28;20034;-93
2022/07/03 11:07:59;;;;;;;4.78;3.50;;;;;;;35.41;22.58;98718.34;5046152;28;20095;-93
2022/07/03 11:10:40;;;;;;;9.90;3.80;;;;;;;35.49;22.37;98707.97;5054178;28;20116;-91
2022/07/03 11:13:16;;;;;;;8.05;4.70;;;;;;;35.64;22.01;98705.13;5052396;28;20064;-95
2022/07/03 11:15:45;;;;;;;18.15;11.40;;;;;;;35.72;21.93;98706.84;5052036;28;20119;-93
2022/07/03 11:18:18;;;;;;;13.70;7.30;;;;;;;35.40;22.04;98689.84;5053410;28;20049;-93
2022/07/03 11:21:22;;;;;;;6.60;3.53;;;;;;;35.63;21.87;98702.53;5048635;28;20499;-95
2022/07/03 11:24:28;;;;;;;8.25;4.10;;;;;;;34.55;22.69;98694.44;5051682;28;20453;-89
2022/07/03 11:27:28;;;;;;;6.35;4.53;;;;;;;34.96;22.70;98690.97;5044258;28;20037;-92
2022/07/03 11:29:57;;;;;;;9.80;7.15;;;;;;;35.25;22.57;98683.59;4971073;28;20129;-92
2022/07/03 11:32:46;;;;;;;7.70;4.07;;;;;;;35.49;22.14;98685.84;4968704;28;20042;-94
2022/07/03 11:35:57;;;;;;;6.32;3.90;;;;;;;34.84;22.14;98684.31;4964563;28;20043;-92
2022/07/03 11:38:28;;;;;;;8.25;4.20;;;;;;;35.03;22.71;98680.00;4930167;29;20059;-92
2022/07/03 11:40:56;;;;;;;7.03;4.00;;;;;;;34.83;22.84;98677.94;4933356;29;20111;-91
2022/07/03 11:43:22;;;;;;;9.13;4.10;;;;;;;34.92;21.65;98678.66;4931187;29;20043;-92
2022/07/03 11:45:49;;;;;;;6.70;3.58;;;;;;;34.72;22.02;98667.41;4928413;29;20062;-93
2022/07/03 11:48:17;;;;;;;5.60;4.07;;;;;;;34.81;23.11;98682.81;4931389;29;20152;-91
2022/07/03 11:50:44;;;;;;;7.45;4.00;;;;;;;34.97;22.03;98654.03;4931755;29;20188;-92